sensor_id;sensor_type;location;lat;lon;timestamp;pressure;altitude;pressure_sealevel;temperature;humidity
61870;BME280;47810;42.264;23.826;2023-03-14T00:01:34;94116.25;;;0.52;62.41
61870;BME280;47810;42.264;23.826;2023-03-14T00:04:00;94105.56;;;0.27;63.41
61870;BME280;47810;42.264;23.826;2023-03-14T00:06:26;94100.56;;;0.18;64.30
61870;BME280;47810;42.264;23.826;2023-03-14T00:08:51;94101.19;;;0.28;65.08
61870;BME280;47810;42.264;23.826;2023-03-14T00:11:18;94098.41;;;0.37;65.07
61870;BME280;47810;42.264;23.826;2023-03-14T00:13:46;94089.44;;;0.50;65.10
61870;BME280;47810;42.264;23.826;2023-03-14T00:16:12;94087.16;;;0.74;64.24
61870;BME280;47810;42.264;23.826;2023-03-14T00:18:38;94080.84;;;0.84;63.13
61870;BME280;47810;42.264;23.826;2023-03-14T00:21:04;94088.59;;;0.87;62.91
61870;BME280;47810;42.264;23.826;2023-03-14T00:23:30;94083.13;;;0.96;63.23
61870;BME280;47810;42.264;23.826;2023-03-14T00:26:06;94081.44;;;0.95;63.38
61870;BME280;47810;42.264;23.826;2023-03-14T00:28:33;94083.31;;;0.90;62.87
61870;BME280;47810;42.264;23.826;2023-03-14T00:30:58;94083.81;;;1.03;62.47
61870;BME280;47810;42.264;23.826;2023-03-14T00:33:25;94070.66;;;1.10;62.13
61870;BME280;47810;42.264;23.826;2023-03-14T00:36:09;94066.16;;;1.15;61.89
61870;BME280;47810;42.264;23.826;2023-03-14T00:38:35;94054.66;;;1.26;60.77
61870;BME280;47810;42.264;23.826;2023-03-14T00:41:08;94049.38;;;1.29;61.18
61870;BME280;47810;42.264;23.826;2023-03-14T00:43:34;94052.06;;;1.26;60.51
61870;BME280;47810;42.264;23.826;2023-03-14T00:46:00;94054.69;;;1.24;61.04
61870;BME280;47810;42.264;23.826;2023-03-14T00:48:25;94047.88;;;1.19;61.04
61870;BME280;47810;42.264;23.826;2023-03-14T00:50:51;94053.53;;;1.02;63.12
61870;BME280;47810;42.264;23.826;2023-03-14T00:53:16;94054.13;;;0.79;62.37
61870;BME280;47810;42.264;23.826;2023-03-14T00:55:42;94050.09;;;1.01;61.28
61870;BME280;47810;42.264;23.826;2023-03-14T00:58:08;94061.56;;;0.58;62.76
61870;BME280;47810;42.264;23.826;2023-03-14T01:00:35;94051.81;;;0.66;62.64
61870;BME280;47810;42.264;23.826;2023-03-14T01:03:00;94054.34;;;0.69;62.14
61870;BME280;47810;42.264;23.826;2023-03-14T01:05:26;94048.03;;;0.44;62.75
61870;BME280;47810;42.264;23.826;2023-03-14T01:07:52;94045.53;;;0.02;64.22
61870;BME280;47810;42.264;23.826;2023-03-14T01:10:18;94043.69;;;0.07;63.34
61870;BME280;47810;42.264;23.826;2023-03-14T01:12:43;94025.44;;;-0.29;64.52
61870;BME280;47810;42.264;23.826;2023-03-14T01:15:09;94027.25;;;-0.34;65.36
61870;BME280;47810;42.264;23.826;2023-03-14T01:17:35;94032.69;;;-0.46;65.05
61870;BME280;47810;42.264;23.826;2023-03-14T01:20:03;94016.38;;;-0.09;64.27
61870;BME280;47810;42.264;23.826;2023-03-14T01:22:30;94005.56;;;-0.30;64.19
61870;BME280;47810;42.264;23.826;2023-03-14T01:24:57;94003.09;;;-0.36;64.59
61870;BME280;47810;42.264;23.826;2023-03-14T01:27:23;93995.31;;;-0.36;64.80
61870;BME280;47810;42.264;23.826;2023-03-14T01:29:49;93993.34;;;-0.25;64.78
61870;BME280;47810;42.264;23.826;2023-03-14T01:32:14;93991.66;;;-0.26;64.96
61870;BME280;47810;42.264;23.826;2023-03-14T01:34:40;93984.00;;;-0.32;65.69
61870;BME280;47810;42.264;23.826;2023-03-14T01:37:05;93971.75;;;-0.27;65.64
61870;BME280;47810;42.264;23.826;2023-03-14T01:39:33;93973.31;;;-0.19;66.02
61870;BME280;47810;42.264;23.826;2023-03-14T01:41:59;93971.28;;;-0.05;65.11
61870;BME280;47810;42.264;23.826;2023-03-14T01:44:25;93973.13;;;-0.10;64.82
61870;BME280;47810;42.264;23.826;2023-03-14T01:46:51;93973.31;;;-0.18;64.23
61870;BME280;47810;42.264;23.826;2023-03-14T01:49:18;93979.91;;;-0.03;65.01
61870;BME280;47810;42.264;23.826;2023-03-14T01:54:13;93980.13;;;0.23;64.45
61870;BME280;47810;42.264;23.826;2023-03-14T01:56:40;93977.97;;;0.05;63.75
61870;BME280;47810;42.264;23.826;2023-03-14T01:59:07;93989.47;;;0.31;63.51
61870;BME280;47810;42.264;23.826;2023-03-14T02:01:33;93992.84;;;0.36;62.35
61870;BME280;47810;42.264;23.826;2023-03-14T02:04:00;93991.44;;;0.22;63.29
61870;BME280;47810;42.264;23.826;2023-03-14T02:06:29;93993.13;;;0.23;63.42
61870;BME280;47810;42.264;23.826;2023-03-14T02:08:56;94001.88;;;0.19;63.47
61870;BME280;47810;42.264;23.826;2023-03-14T02:11:23;94005.28;;;-0.17;64.76
61870;BME280;47810;42.264;23.826;2023-03-14T02:13:51;94007.81;;;-0.14;64.80
61870;BME280;47810;42.264;23.826;2023-03-14T02:16:17;93999.50;;;-0.29;65.18
61870;BME280;47810;42.264;23.826;2023-03-14T02:18:43;93992.91;;;-0.45;65.01
61870;BME280;47810;42.264;23.826;2023-03-14T02:23:45;93976.78;;;-0.58;66.18
61870;BME280;47810;42.264;23.826;2023-03-14T02:26:23;93983.25;;;-0.79;67.02
61870;BME280;47810;42.264;23.826;2023-03-14T02:28:51;93990.78;;;-0.66;66.96
61870;BME280;47810;42.264;23.826;2023-03-14T02:31:18;93991.47;;;-0.58;66.65
61870;BME280;47810;42.264;23.826;2023-03-14T02:33:44;93989.81;;;-0.61;66.77
61870;BME280;47810;42.264;23.826;2023-03-14T02:36:11;93986.81;;;-0.42;66.78
61870;BME280;47810;42.264;23.826;2023-03-14T02:41:42;93984.34;;;-0.49;65.57
61870;BME280;47810;42.264;23.826;2023-03-14T02:44:11;93976.38;;;-0.39;65.27
61870;BME280;47810;42.264;23.826;2023-03-14T02:46:36;93981.50;;;-0.36;65.70
61870;BME280;47810;42.264;23.826;2023-03-14T02:49:03;93973.81;;;-0.41;65.08
61870;BME280;47810;42.264;23.826;2023-03-14T02:51:28;93979.75;;;-0.36;65.13
61870;BME280;47810;42.264;23.826;2023-03-14T02:53:54;93967.19;;;-0.54;65.48
61870;BME280;47810;42.264;23.826;2023-03-14T02:56:20;93961.13;;;-0.55;65.81
61870;BME280;47810;42.264;23.826;2023-03-14T02:58:45;93963.63;;;-0.50;65.95
61870;BME280;47810;42.264;23.826;2023-03-14T03:01:11;93951.69;;;-0.57;66.11
61870;BME280;47810;42.264;23.826;2023-03-14T03:03:36;93955.84;;;-0.50;66.04
61870;BME280;47810;42.264;23.826;2023-03-14T03:06:02;93949.31;;;-0.28;65.53
61870;BME280;47810;42.264;23.826;2023-03-14T03:08:28;93948.19;;;-0.16;65.28
61870;BME280;47810;42.264;23.826;2023-03-14T03:10:54;93959.91;;;0.01;65.07
61870;BME280;47810;42.264;23.826;2023-03-14T03:13:19;93950.19;;;0.10;64.71
61870;BME280;47810;42.264;23.826;2023-03-14T03:15:49;93952.16;;;-0.01;63.86
61870;BME280;47810;42.264;23.826;2023-03-14T03:18:14;93941.34;;;0.17;62.79
61870;BME280;47810;42.264;23.826;2023-03-14T03:20:40;93940.00;;;0.01;64.31
61870;BME280;47810;42.264;23.826;2023-03-14T03:23:05;93947.66;;;0.06;63.70
61870;BME280;47810;42.264;23.826;2023-03-14T03:25:31;93949.56;;;-0.01;64.80
61870;BME280;47810;42.264;23.826;2023-03-14T03:27:56;93947.09;;;-0.07;65.53
61870;BME280;47810;42.264;23.826;2023-03-14T03:30:22;93948.75;;;-0.03;65.01
61870;BME280;47810;42.264;23.826;2023-03-14T03:32:48;93958.19;;;-0.01;64.49
61870;BME280;47810;42.264;23.826;2023-03-14T03:35:13;93955.03;;;-0.13;64.99
61870;BME280;47810;42.264;23.826;2023-03-14T03:37:39;93962.34;;;-0.31;65.89
61870;BME280;47810;42.264;23.826;2023-03-14T03:40:05;93958.53;;;-0.14;64.86
61870;BME280;47810;42.264;23.826;2023-03-14T03:42:33;93958.44;;;-0.11;64.71
61870;BME280;47810;42.264;23.826;2023-03-14T03:44:59;93963.38;;;-0.38;65.84
61870;BME280;47810;42.264;23.826;2023-03-14T03:47:25;93960.63;;;-0.71;67.15
61870;BME280;47810;42.264;23.826;2023-03-14T03:49:51;93962.25;;;-0.66;67.18
61870;BME280;47810;42.264;23.826;2023-03-14T03:52:16;93958.72;;;-0.62;66.96
61870;BME280;47810;42.264;23.826;2023-03-14T03:54:42;93958.03;;;-0.71;67.37
61870;BME280;47810;42.264;23.826;2023-03-14T03:57:07;93960.81;;;-0.80;67.98
61870;BME280;47810;42.264;23.826;2023-03-14T03:59:33;93959.53;;;-1.04;68.85
61870;BME280;47810;42.264;23.826;2023-03-14T04:01:59;93948.38;;;-1.07;69.32
61870;BME280;47810;42.264;23.826;2023-03-14T04:04:24;93952.44;;;-0.94;69.29
61870;BME280;47810;42.264;23.826;2023-03-14T04:06:50;93949.59;;;-0.80;69.09
61870;BME280;47810;42.264;23.826;2023-03-14T04:09:15;93941.72;;;-0.76;69.05
61870;BME280;47810;42.264;23.826;2023-03-14T04:11:41;93941.53;;;-0.66;67.71
61870;BME280;47810;42.264;23.826;2023-03-14T04:14:07;93941.59;;;-0.69;67.91
61870;BME280;47810;42.264;23.826;2023-03-14T04:16:32;93936.28;;;-0.63;68.20
61870;BME280;47810;42.264;23.826;2023-03-14T04:18:58;93939.41;;;-0.49;67.76
61870;BME280;47810;42.264;23.826;2023-03-14T04:21:23;93931.94;;;-0.64;69.26
61870;BME280;47810;42.264;23.826;2023-03-14T04:23:49;93937.97;;;-0.62;69.38
61870;BME280;47810;42.264;23.826;2023-03-14T04:26:15;93939.94;;;-0.74;69.64
61870;BME280;47810;42.264;23.826;2023-03-14T04:28:40;93941.78;;;-0.79;69.46
61870;BME280;47810;42.264;23.826;2023-03-14T04:31:07;93945.38;;;-0.86;69.43
61870;BME280;47810;42.264;23.826;2023-03-14T04:33:33;93943.59;;;-0.84;68.85
61870;BME280;47810;42.264;23.826;2023-03-14T04:35:59;93935.41;;;-0.64;68.45
61870;BME280;47810;42.264;23.826;2023-03-14T04:38:24;93934.47;;;-0.61;68.77
61870;BME280;47810;42.264;23.826;2023-03-14T04:40:50;93937.66;;;-0.47;67.46
61870;BME280;47810;42.264;23.826;2023-03-14T04:43:16;93935.78;;;-0.42;67.35
61870;BME280;47810;42.264;23.826;2023-03-14T04:45:41;93939.53;;;-0.55;68.09
61870;BME280;47810;42.264;23.826;2023-03-14T04:48:07;93939.72;;;-0.63;68.93
61870;BME280;47810;42.264;23.826;2023-03-14T04:50:33;93939.53;;;-0.55;68.40
61870;BME280;47810;42.264;23.826;2023-03-14T04:52:58;93937.50;;;-0.41;67.40
61870;BME280;47810;42.264;23.826;2023-03-14T04:55:24;93939.34;;;-0.46;67.67
61870;BME280;47810;42.264;23.826;2023-03-14T04:57:49;93942.69;;;-0.41;67.50
61870;BME280;47810;42.264;23.826;2023-03-14T05:00:15;93935.00;;;-0.45;67.45
61870;BME280;47810;42.264;23.826;2023-03-14T05:02:43;93939.22;;;-0.40;68.06
61870;BME280;47810;42.264;23.826;2023-03-14T05:05:09;93938.34;;;-0.40;68.06
61870;BME280;47810;42.264;23.826;2023-03-14T05:07:34;93933.81;;;-0.31;67.66
61870;BME280;47810;42.264;23.826;2023-03-14T05:10:00;93927.50;;;-0.19;67.33
61870;BME280;47810;42.264;23.826;2023-03-14T05:12:25;93926.34;;;-0.07;66.09
61870;BME280;47810;42.264;23.826;2023-03-14T05:14:51;93926.63;;;-0.19;65.39
61870;BME280;47810;42.264;23.826;2023-03-14T05:17:16;93942.19;;;-0.19;66.30
61870;BME280;47810;42.264;23.826;2023-03-14T05:19:44;93939.78;;;-0.26;66.51
61870;BME280;47810;42.264;23.826;2023-03-14T05:22:10;93940.78;;;-0.33;67.41
61870;BME280;47810;42.264;23.826;2023-03-14T05:24:35;93938.66;;;-0.15;65.32
61870;BME280;47810;42.264;23.826;2023-03-14T05:27:01;93936.28;;;-0.26;65.21
61870;BME280;47810;42.264;23.826;2023-03-14T05:29:27;93933.63;;;-0.21;64.44
61870;BME280;47810;42.264;23.826;2023-03-14T05:31:52;93932.91;;;-0.28;65.06
61870;BME280;47810;42.264;23.826;2023-03-14T05:34:18;93928.75;;;-0.37;65.80
61870;BME280;47810;42.264;23.826;2023-03-14T05:36:43;93932.84;;;-0.27;65.79
61870;BME280;47810;42.264;23.826;2023-03-14T05:39:09;93933.75;;;-0.28;66.36
61870;BME280;47810;42.264;23.826;2023-03-14T05:41:35;93930.53;;;-0.39;66.87
61870;BME280;47810;42.264;23.826;2023-03-14T05:44:01;93921.69;;;-0.29;67.71
61870;BME280;47810;42.264;23.826;2023-03-14T05:46:26;93926.63;;;-0.19;67.09
61870;BME280;47810;42.264;23.826;2023-03-14T05:48:52;93916.59;;;0.03;66.48
61870;BME280;47810;42.264;23.826;2023-03-14T05:51:18;93910.47;;;0.05;65.67
61870;BME280;47810;42.264;23.826;2023-03-14T05:53:43;93914.63;;;0.12;66.24
61870;BME280;47810;42.264;23.826;2023-03-14T05:56:09;93913.59;;;0.19;65.54
61870;BME280;47810;42.264;23.826;2023-03-14T05:58:35;93910.88;;;0.24;65.24
61870;BME280;47810;42.264;23.826;2023-03-14T06:01:02;93916.94;;;0.25;66.13
61870;BME280;47810;42.264;23.826;2023-03-14T06:03:27;93924.16;;;0.13;66.12
61870;BME280;47810;42.264;23.826;2023-03-14T06:05:58;93922.56;;;0.06;66.43
61870;BME280;47810;42.264;23.826;2023-03-14T06:08:25;93924.09;;;0.15;65.90
61870;BME280;47810;42.264;23.826;2023-03-14T06:10:51;93923.38;;;0.10;65.66
61870;BME280;47810;42.264;23.826;2023-03-14T06:13:16;93917.50;;;0.02;65.22
61870;BME280;47810;42.264;23.826;2023-03-14T06:15:42;93909.50;;;0.09;65.43
61870;BME280;47810;42.264;23.826;2023-03-14T06:18:07;93903.38;;;0.13;64.86
61870;BME280;47810;42.264;23.826;2023-03-14T06:20:37;93906.78;;;0.15;65.03
61870;BME280;47810;42.264;23.826;2023-03-14T06:23:06;93905.78;;;0.21;65.34
61870;BME280;47810;42.264;23.826;2023-03-14T06:25:33;93891.03;;;0.21;65.19
61870;BME280;47810;42.264;23.826;2023-03-14T06:27:58;93904.91;;;0.20;64.92
61870;BME280;47810;42.264;23.826;2023-03-14T06:30:24;93912.72;;;0.19;64.89
61870;BME280;47810;42.264;23.826;2023-03-14T06:32:49;93896.22;;;0.21;66.49
61870;BME280;47810;42.264;23.826;2023-03-14T06:35:15;93906.59;;;0.23;65.97
61870;BME280;47810;42.264;23.826;2023-03-14T06:37:41;93894.22;;;0.33;66.83
61870;BME280;47810;42.264;23.826;2023-03-14T06:40:06;93909.19;;;0.23;66.20
61870;BME280;47810;42.264;23.826;2023-03-14T06:42:32;93908.44;;;0.18;66.38
61870;BME280;47810;42.264;23.826;2023-03-14T06:44:58;93902.81;;;0.35;66.08
61870;BME280;47810;42.264;23.826;2023-03-14T06:47:24;93901.03;;;0.37;65.56
61870;BME280;47810;42.264;23.826;2023-03-14T06:49:49;93910.53;;;0.38;65.27
61870;BME280;47810;42.264;23.826;2023-03-14T06:52:15;93902.72;;;0.39;65.67
61870;BME280;47810;42.264;23.826;2023-03-14T06:54:40;93901.56;;;0.50;66.27
61870;BME280;47810;42.264;23.826;2023-03-14T06:57:06;93899.97;;;0.45;65.98
61870;BME280;47810;42.264;23.826;2023-03-14T06:59:31;93898.94;;;0.51;65.17
61870;BME280;47810;42.264;23.826;2023-03-14T07:01:57;93895.28;;;0.58;64.61
61870;BME280;47810;42.264;23.826;2023-03-14T07:04:22;93896.75;;;0.68;64.39
61870;BME280;47810;42.264;23.826;2023-03-14T07:06:48;93889.66;;;0.74;63.92
61870;BME280;47810;42.264;23.826;2023-03-14T07:09:14;93893.16;;;0.73;63.58
61870;BME280;47810;42.264;23.826;2023-03-14T07:11:40;93881.34;;;0.93;61.66
61870;BME280;47810;42.264;23.826;2023-03-14T07:14:05;93879.94;;;1.11;60.40
61870;BME280;47810;42.264;23.826;2023-03-14T07:16:32;93878.50;;;1.01;61.65
61870;BME280;47810;42.264;23.826;2023-03-14T07:18:58;93878.34;;;1.07;61.92
61870;BME280;47810;42.264;23.826;2023-03-14T07:21:24;93870.88;;;1.25;61.60
61870;BME280;47810;42.264;23.826;2023-03-14T07:23:49;93864.59;;;1.90;59.58
61870;BME280;47810;42.264;23.826;2023-03-14T07:26:15;93870.31;;;2.26;57.32
61870;BME280;47810;42.264;23.826;2023-03-14T07:28:41;93871.94;;;2.03;60.46
61870;BME280;47810;42.264;23.826;2023-03-14T07:31:06;93870.69;;;2.15;59.14
61870;BME280;47810;42.264;23.826;2023-03-14T07:33:32;93874.13;;;2.42;60.12
61870;BME280;47810;42.264;23.826;2023-03-14T07:35:58;93877.09;;;2.56;59.62
61870;BME280;47810;42.264;23.826;2023-03-14T07:38:23;93878.13;;;2.77;59.97
61870;BME280;47810;42.264;23.826;2023-03-14T07:40:49;93880.72;;;3.02;58.60
61870;BME280;47810;42.264;23.826;2023-03-14T07:43:15;93878.63;;;3.12;57.57
61870;BME280;47810;42.264;23.826;2023-03-14T07:45:40;93873.22;;;2.93;56.10
61870;BME280;47810;42.264;23.826;2023-03-14T07:48:06;93876.81;;;3.38;58.25
61870;BME280;47810;42.264;23.826;2023-03-14T07:50:31;93880.00;;;3.68;56.66
61870;BME280;47810;42.264;23.826;2023-03-14T07:52:57;93861.38;;;4.21;57.01
61870;BME280;47810;42.264;23.826;2023-03-14T07:55:22;93864.13;;;4.59;55.42
61870;BME280;47810;42.264;23.826;2023-03-14T07:57:48;93860.75;;;4.98;53.47
61870;BME280;47810;42.264;23.826;2023-03-14T08:00:14;93849.97;;;5.04;53.18
61870;BME280;47810;42.264;23.826;2023-03-14T08:02:40;93850.03;;;5.60;53.48
61870;BME280;47810;42.264;23.826;2023-03-14T08:05:05;93844.09;;;5.95;53.55
61870;BME280;47810;42.264;23.826;2023-03-14T08:07:34;93848.63;;;6.10;52.87
61870;BME280;47810;42.264;23.826;2023-03-14T08:09:59;93839.22;;;6.41;51.97
61870;BME280;47810;42.264;23.826;2023-03-14T08:12:25;93836.31;;;6.82;51.18
61870;BME280;47810;42.264;23.826;2023-03-14T08:14:52;93825.91;;;7.13;49.18
61870;BME280;47810;42.264;23.826;2023-03-14T08:17:17;93830.16;;;7.16;48.81
61870;BME280;47810;42.264;23.826;2023-03-14T08:19:43;93816.84;;;7.52;47.57
61870;BME280;47810;42.264;23.826;2023-03-14T08:22:08;93820.91;;;7.74;45.51
61870;BME280;47810;42.264;23.826;2023-03-14T08:24:34;93803.78;;;7.82;47.41
61870;BME280;47810;42.264;23.826;2023-03-14T08:27:00;93811.75;;;7.65;46.78
61870;BME280;47810;42.264;23.826;2023-03-14T08:29:25;93811.56;;;8.15;46.14
61870;BME280;47810;42.264;23.826;2023-03-14T08:31:51;93801.16;;;8.44;45.72
61870;BME280;47810;42.264;23.826;2023-03-14T08:34:16;93802.00;;;8.60;45.21
61870;BME280;47810;42.264;23.826;2023-03-14T08:36:42;93805.44;;;8.91;43.24
61870;BME280;47810;42.264;23.826;2023-03-14T08:39:08;93801.13;;;9.04;43.15
61870;BME280;47810;42.264;23.826;2023-03-14T08:41:34;93801.97;;;9.33;41.94
61870;BME280;47810;42.264;23.826;2023-03-14T08:44:06;93794.16;;;9.61;41.73
61870;BME280;47810;42.264;23.826;2023-03-14T08:46:31;93790.34;;;9.93;44.00
61870;BME280;47810;42.264;23.826;2023-03-14T08:48:59;93795.81;;;9.90;39.78
61870;BME280;47810;42.264;23.826;2023-03-14T08:51:24;93793.16;;;10.17;40.63
61870;BME280;47810;42.264;23.826;2023-03-14T08:53:50;93800.44;;;10.28;39.58
61870;BME280;47810;42.264;23.826;2023-03-14T08:56:15;93792.25;;;10.18;40.46
61870;BME280;47810;42.264;23.826;2023-03-14T08:58:41;93790.38;;;10.47;40.54
61870;BME280;47810;42.264;23.826;2023-03-14T09:01:10;93797.00;;;10.80;38.89
61870;BME280;47810;42.264;23.826;2023-03-14T09:03:36;93786.34;;;11.20;38.61
61870;BME280;47810;42.264;23.826;2023-03-14T09:06:05;93789.19;;;11.30;38.35
61870;BME280;47810;42.264;23.826;2023-03-14T09:08:31;93792.59;;;11.19;38.37
61870;BME280;47810;42.264;23.826;2023-03-14T09:10:57;93788.56;;;11.13;37.16
61870;BME280;47810;42.264;23.826;2023-03-14T09:13:22;93790.16;;;11.41;39.01
61870;BME280;47810;42.264;23.826;2023-03-14T09:15:51;93784.06;;;11.65;37.73
61870;BME280;47810;42.264;23.826;2023-03-14T09:18:18;93778.09;;;12.00;37.64
61870;BME280;47810;42.264;23.826;2023-03-14T09:20:43;93786.03;;;12.37;36.89
61870;BME280;47810;42.264;23.826;2023-03-14T09:23:09;93788.44;;;12.16;36.70
61870;BME280;47810;42.264;23.826;2023-03-14T09:25:34;93793.22;;;12.34;37.19
61870;BME280;47810;42.264;23.826;2023-03-14T09:28:00;93783.28;;;12.73;34.16
61870;BME280;47810;42.264;23.826;2023-03-14T09:30:25;93778.06;;;12.12;35.44
61870;BME280;47810;42.264;23.826;2023-03-14T09:32:51;93770.16;;;12.37;35.53
61870;BME280;47810;42.264;23.826;2023-03-14T09:35:16;93763.28;;;12.69;37.14
61870;BME280;47810;42.264;23.826;2023-03-14T09:37:42;93759.41;;;12.97;37.83
61870;BME280;47810;42.264;23.826;2023-03-14T09:40:11;93758.03;;;13.27;35.05
61870;BME280;47810;42.264;23.826;2023-03-14T09:42:38;93749.88;;;12.95;34.93
61870;BME280;47810;42.264;23.826;2023-03-14T09:45:07;93747.28;;;13.28;34.23
61870;BME280;47810;42.264;23.826;2023-03-14T09:47:35;93739.47;;;13.38;33.52
61870;BME280;47810;42.264;23.826;2023-03-14T09:50:01;93737.69;;;13.50;35.37
61870;BME280;47810;42.264;23.826;2023-03-14T09:52:29;93731.72;;;13.80;33.75
61870;BME280;47810;42.264;23.826;2023-03-14T09:54:59;93724.84;;;13.89;33.11
61870;BME280;47810;42.264;23.826;2023-03-14T09:57:27;93725.72;;;14.33;33.72
61870;BME280;47810;42.264;23.826;2023-03-14T09:59:59;93721.63;;;14.29;34.08
61870;BME280;47810;42.264;23.826;2023-03-14T10:02:32;93711.69;;;14.42;31.43
61870;BME280;47810;42.264;23.826;2023-03-14T10:04:58;93707.63;;;14.27;31.79
61870;BME280;47810;42.264;23.826;2023-03-14T10:07:29;93701.38;;;14.16;34.53
61870;BME280;47810;42.264;23.826;2023-03-14T10:09:55;93697.06;;;14.04;34.94
61870;BME280;47810;42.264;23.826;2023-03-14T10:12:31;93692.94;;;14.76;33.32
61870;BME280;47810;42.264;23.826;2023-03-14T10:14:57;93687.97;;;14.50;33.99
61870;BME280;47810;42.264;23.826;2023-03-14T10:17:26;93676.88;;;14.56;33.00
61870;BME280;47810;42.264;23.826;2023-03-14T10:19:57;93668.19;;;14.96;32.63
61870;BME280;47810;42.264;23.826;2023-03-14T10:22:28;93657.66;;;15.16;32.56
61870;BME280;47810;42.264;23.826;2023-03-14T10:24:55;93651.69;;;15.33;30.75
61870;BME280;47810;42.264;23.826;2023-03-14T10:27:40;93644.34;;;15.56;32.17
61870;BME280;47810;42.264;23.826;2023-03-14T10:30:07;93639.97;;;15.35;30.97
61870;BME280;47810;42.264;23.826;2023-03-14T10:32:37;93632.63;;;15.28;33.10
61870;BME280;47810;42.264;23.826;2023-03-14T10:35:21;93626.66;;;15.35;30.32
61870;BME280;47810;42.264;23.826;2023-03-14T10:37:56;93623.75;;;15.48;31.48
61870;BME280;47810;42.264;23.826;2023-03-14T10:40:30;93614.59;;;15.31;30.46
61870;BME280;47810;42.264;23.826;2023-03-14T10:42:57;93612.25;;;15.38;31.31
61870;BME280;47810;42.264;23.826;2023-03-14T10:45:40;93599.28;;;15.54;33.37
61870;BME280;47810;42.264;23.826;2023-03-14T10:50:57;93592.06;;;15.95;30.53
61870;BME280;47810;42.264;23.826;2023-03-14T10:53:23;93586.66;;;15.56;31.81
61870;BME280;47810;42.264;23.826;2023-03-14T10:55:50;93575.13;;;15.36;29.84
61870;BME280;47810;42.264;23.826;2023-03-14T10:58:19;93567.59;;;15.51;30.62
61870;BME280;47810;42.264;23.826;2023-03-14T11:00:46;93569.84;;;15.56;30.09
61870;BME280;47810;42.264;23.826;2023-03-14T11:03:14;93556.72;;;15.64;30.34
61870;BME280;47810;42.264;23.826;2023-03-14T11:05:43;93553.09;;;15.75;31.51
61870;BME280;47810;42.264;23.826;2023-03-14T11:08:17;93548.06;;;15.72;30.95
61870;BME280;47810;42.264;23.826;2023-03-14T11:10:46;93539.38;;;15.70;30.40
61870;BME280;47810;42.264;23.826;2023-03-14T11:13:20;93540.78;;;15.93;30.19
61870;BME280;47810;42.264;23.826;2023-03-14T11:16:09;93530.41;;;15.80;29.32
61870;BME280;47810;42.264;23.826;2023-03-14T11:21:37;93512.19;;;15.76;29.97
61870;BME280;47810;42.264;23.826;2023-03-14T11:24:16;93506.00;;;15.66;29.59
61870;BME280;47810;42.264;23.826;2023-03-14T11:35:07;93475.66;;;15.08;30.88
61870;BME280;47810;42.264;23.826;2023-03-14T11:37:40;93475.72;;;15.47;29.23
61870;BME280;47810;42.264;23.826;2023-03-14T11:42:44;93469.59;;;15.76;29.48
61870;BME280;47810;42.264;23.826;2023-03-14T11:45:19;93462.56;;;15.94;29.47
61870;BME280;47810;42.264;23.826;2023-03-14T11:47:46;93467.63;;;15.78;30.73
61870;BME280;47810;42.264;23.826;2023-03-14T11:50:23;93458.09;;;15.75;29.74
61870;BME280;47810;42.264;23.826;2023-03-14T11:52:52;93468.88;;;15.54;30.03
61870;BME280;47810;42.264;23.826;2023-03-14T11:57:51;93452.66;;;15.67;29.79
61870;BME280;47810;42.264;23.826;2023-03-14T12:00:19;93450.09;;;15.66;29.27
61870;BME280;47810;42.264;23.826;2023-03-14T12:10:04;93429.28;;;15.71;29.61
61870;BME280;47810;42.264;23.826;2023-03-14T12:12:30;93426.59;;;15.80;29.08
61870;BME280;47810;42.264;23.826;2023-03-14T12:15:00;93420.81;;;15.66;29.00
61870;BME280;47810;42.264;23.826;2023-03-14T12:17:39;93407.53;;;15.46;29.74
61870;BME280;47810;42.264;23.826;2023-03-14T12:20:15;93408.78;;;15.61;30.49
61870;BME280;47810;42.264;23.826;2023-03-14T12:22:42;93409.50;;;15.44;29.17
61870;BME280;47810;42.264;23.826;2023-03-14T12:30:39;93390.00;;;15.53;31.62
61870;BME280;47810;42.264;23.826;2023-03-14T12:38:13;93363.97;;;15.86;28.06
61870;BME280;47810;42.264;23.826;2023-03-14T12:43:28;93352.44;;;15.86;28.76
61870;BME280;47810;42.264;23.826;2023-03-14T12:46:37;93358.41;;;15.70;28.29
61870;BME280;47810;42.264;23.826;2023-03-14T12:48:44;93348.84;;;15.77;29.32
61870;BME280;47810;42.264;23.826;2023-03-14T12:51:15;93349.91;;;15.94;28.84
61870;BME280;47810;42.264;23.826;2023-03-14T12:58:44;93346.88;;;15.69;28.26
61870;BME280;47810;42.264;23.826;2023-03-14T13:01:16;93348.28;;;15.64;29.92
61870;BME280;47810;42.264;23.826;2023-03-14T13:03:50;93341.75;;;15.38;29.77
61870;BME280;47810;42.264;23.826;2023-03-14T13:11:49;93327.31;;;15.41;29.64
61870;BME280;47810;42.264;23.826;2023-03-14T13:14:15;93334.47;;;15.21;29.58
61870;BME280;47810;42.264;23.826;2023-03-14T13:16:41;93329.00;;;15.42;30.08
61870;BME280;47810;42.264;23.826;2023-03-14T13:19:18;93324.69;;;15.31;29.09
61870;BME280;47810;42.264;23.826;2023-03-14T13:21:45;93322.84;;;15.32;30.40
61870;BME280;47810;42.264;23.826;2023-03-14T13:24:21;93312.06;;;15.33;30.17
61870;BME280;47810;42.264;23.826;2023-03-14T13:26:47;93320.59;;;15.27;30.42
61870;BME280;47810;42.264;23.826;2023-03-14T13:29:18;93320.31;;;15.40;29.34
61870;BME280;47810;42.264;23.826;2023-03-14T13:31:48;93315.44;;;15.26;30.95
61870;BME280;47810;42.264;23.826;2023-03-14T13:34:14;93312.22;;;15.12;30.27
61870;BME280;47810;42.264;23.826;2023-03-14T13:36:39;93311.25;;;15.13;31.06
61870;BME280;47810;42.264;23.826;2023-03-14T13:39:09;93305.66;;;14.97;31.05
61870;BME280;47810;42.264;23.826;2023-03-14T13:41:37;93302.72;;;14.81;30.86
61870;BME280;47810;42.264;23.826;2023-03-14T13:44:04;93299.59;;;14.56;30.78
61870;BME280;47810;42.264;23.826;2023-03-14T13:46:33;93295.59;;;14.31;31.35
61870;BME280;47810;42.264;23.826;2023-03-14T13:49:00;93290.47;;;13.99;32.04
61870;BME280;47810;42.264;23.826;2023-03-14T13:51:27;93286.53;;;13.84;33.47